sensor_id;sensor_type;location;lat;lon;timestamp;P1;durP1;ratioP1;P2;durP2;ratioP2
18887;SDS011;9576;47.792;9.628;2022-09-01T00:02:59;40.17;;;23.88;;
18887;SDS011;9576;47.792;9.628;2022-09-01T00:06:02;41.60;;;24.38;;
18887;SDS011;9576;47.792;9.628;2022-09-01T00:09:10;40.25;;;21.98;;
18887;SDS011;9576;47.792;9.628;2022-09-01T00:12:14;38.72;;;21.98;;
18887;SDS011;9576;47.792;9.628;2022-09-01T00:15:16;34.95;;;21.48;;
18887;SDS011;9576;47.792;9.628;2022-09-01T00:18:18;37.22;;;21.92;;
18887;SDS011;9576;47.792;9.628;2022-09-01T00:21:24;37.25;;;21.88;;
18887;SDS011;9576;47.792;9.628;2022-09-01T00:24:31;38.20;;;21.95;;
18887;SDS011;9576;47.792;9.628;2022-09-01T00:27:33;38.63;;;22.27;;
18887;SDS011;9576;47.792;9.628;2022-09-01T00:30:35;33.97;;;20.85;;
18887;SDS011;9576;47.792;9.628;2022-09-01T00:33:37;37.72;;;22.13;;
18887;SDS011;9576;47.792;9.628;2022-09-01T00:36:41;36.33;;;21.05;;
18887;SDS011;9576;47.792;9.628;2022-09-01T00:39:43;37.08;;;21.70;;
18887;SDS011;9576;47.792;9.628;2022-09-01T00:42:45;33.40;;;20.30;;
18887;SDS011;9576;47.792;9.628;2022-09-01T00:45:48;37.83;;;19.48;;
18887;SDS011;9576;47.792;9.628;2022-09-01T00:48:52;37.50;;;19.20;;
18887;SDS011;9576;47.792;9.628;2022-09-01T00:52:00;33.40;;;20.45;;
18887;SDS011;9576;47.792;9.628;2022-09-01T00:55:06;30.80;;;19.77;;
18887;SDS011;9576;47.792;9.628;2022-09-01T00:58:12;30.08;;;18.17;;
18887;SDS011;9576;47.792;9.628;2022-09-01T01:01:14;29.23;;;19.23;;
18887;SDS011;9576;47.792;9.628;2022-09-01T01:04:16;33.13;;;18.75;;
18887;SDS011;9576;47.792;9.628;2022-09-01T01:07:20;28.17;;;18.30;;
18887;SDS011;9576;47.792;9.628;2022-09-01T01:10:23;34.10;;;19.40;;
18887;SDS011;9576;47.792;9.628;2022-09-01T01:13:26;40.40;;;19.52;;
18887;SDS011;9576;47.792;9.628;2022-09-01T01:16:35;31.60;;;20.27;;
18887;SDS011;9576;47.792;9.628;2022-09-01T01:19:40;31.58;;;19.45;;
18887;SDS011;9576;47.792;9.628;2022-09-01T01:23:05;33.58;;;19.17;;
18887;SDS011;9576;47.792;9.628;2022-09-01T01:26:14;30.10;;;16.70;;
18887;SDS011;9576;47.792;9.628;2022-09-01T01:29:16;26.92;;;16.77;;
18887;SDS011;9576;47.792;9.628;2022-09-01T01:32:18;31.73;;;17.65;;
18887;SDS011;9576;47.792;9.628;2022-09-01T01:35:20;26.77;;;15.73;;
18887;SDS011;9576;47.792;9.628;2022-09-01T01:38:25;33.60;;;17.02;;
18887;SDS011;9576;47.792;9.628;2022-09-01T01:41:30;30.30;;;17.23;;
18887;SDS011;9576;47.792;9.628;2022-09-01T01:44:35;28.38;;;15.55;;
18887;SDS011;9576;47.792;9.628;2022-09-01T01:47:37;31.52;;;15.57;;
18887;SDS011;9576;47.792;9.628;2022-09-01T01:50:39;29.58;;;16.50;;
18887;SDS011;9576;47.792;9.628;2022-09-01T01:53:42;24.80;;;16.15;;
18887;SDS011;9576;47.792;9.628;2022-09-01T01:56:45;24.77;;;16.70;;
18887;SDS011;9576;47.792;9.628;2022-09-01T01:59:47;27.70;;;17.48;;
18887;SDS011;9576;47.792;9.628;2022-09-01T02:02:50;27.80;;;16.85;;
18887;SDS011;9576;47.792;9.628;2022-09-01T02:05:52;26.67;;;17.08;;
18887;SDS011;9576;47.792;9.628;2022-09-01T02:08:55;25.52;;;16.27;;
18887;SDS011;9576;47.792;9.628;2022-09-01T02:12:02;31.20;;;17.63;;
18887;SDS011;9576;47.792;9.628;2022-09-01T02:15:07;27.45;;;17.77;;
18887;SDS011;9576;47.792;9.628;2022-09-01T02:18:13;31.00;;;18.30;;
18887;SDS011;9576;47.792;9.628;2022-09-01T02:21:17;34.70;;;19.15;;
18887;SDS011;9576;47.792;9.628;2022-09-01T02:24:21;29.73;;;18.15;;
18887;SDS011;9576;47.792;9.628;2022-09-01T02:27:26;32.90;;;19.33;;
18887;SDS011;9576;47.792;9.628;2022-09-01T02:30:29;28.98;;;19.23;;
18887;SDS011;9576;47.792;9.628;2022-09-01T02:33:32;37.72;;;20.80;;
18887;SDS011;9576;47.792;9.628;2022-09-01T02:36:35;30.67;;;19.80;;
18887;SDS011;9576;47.792;9.628;2022-09-01T02:39:46;34.00;;;20.15;;
18887;SDS011;9576;47.792;9.628;2022-09-01T02:42:50;39.17;;;19.65;;
18887;SDS011;9576;47.792;9.628;2022-09-01T02:45:55;32.80;;;19.75;;
18887;SDS011;9576;47.792;9.628;2022-09-01T02:48:59;35.90;;;21.33;;
18887;SDS011;9576;47.792;9.628;2022-09-01T02:52:03;35.38;;;19.55;;
18887;SDS011;9576;47.792;9.628;2022-09-01T02:55:06;34.33;;;20.33;;
18887;SDS011;9576;47.792;9.628;2022-09-01T02:58:12;29.42;;;18.90;;
18887;SDS011;9576;47.792;9.628;2022-09-01T03:01:19;37.53;;;21.75;;
18887;SDS011;9576;47.792;9.628;2022-09-01T03:04:23;31.38;;;19.38;;
18887;SDS011;9576;47.792;9.628;2022-09-01T03:07:26;33.60;;;19.45;;
18887;SDS011;9576;47.792;9.628;2022-09-01T03:10:30;31.65;;;19.50;;
18887;SDS011;9576;47.792;9.628;2022-09-01T03:13:37;30.92;;;19.40;;
18887;SDS011;9576;47.792;9.628;2022-09-01T03:16:40;39.05;;;19.98;;
18887;SDS011;9576;47.792;9.628;2022-09-01T03:19:42;32.50;;;19.48;;
18887;SDS011;9576;47.792;9.628;2022-09-01T03:22:46;30.50;;;19.58;;
18887;SDS011;9576;47.792;9.628;2022-09-01T03:25:49;31.75;;;19.77;;
18887;SDS011;9576;47.792;9.628;2022-09-01T03:28:53;29.25;;;18.40;;
18887;SDS011;9576;47.792;9.628;2022-09-01T03:31:55;30.88;;;19.77;;
18887;SDS011;9576;47.792;9.628;2022-09-01T03:34:57;36.22;;;18.50;;
18887;SDS011;9576;47.792;9.628;2022-09-01T03:38:00;33.85;;;19.08;;
18887;SDS011;9576;47.792;9.628;2022-09-01T03:41:04;30.30;;;18.65;;
18887;SDS011;9576;47.792;9.628;2022-09-01T03:44:07;34.03;;;18.63;;
18887;SDS011;9576;47.792;9.628;2022-09-01T03:47:11;33.92;;;17.35;;
18887;SDS011;9576;47.792;9.628;2022-09-01T03:50:15;27.90;;;17.40;;
18887;SDS011;9576;47.792;9.628;2022-09-01T03:53:21;33.65;;;17.77;;
18887;SDS011;9576;47.792;9.628;2022-09-01T03:56:26;27.27;;;17.80;;
18887;SDS011;9576;47.792;9.628;2022-09-01T03:59:31;34.70;;;18.38;;
18887;SDS011;9576;47.792;9.628;2022-09-01T04:02:34;36.15;;;18.10;;
18887;SDS011;9576;47.792;9.628;2022-09-01T04:05:36;32.88;;;17.67;;
18887;SDS011;9576;47.792;9.628;2022-09-01T04:08:39;26.67;;;16.95;;
18887;SDS011;9576;47.792;9.628;2022-09-01T04:11:42;33.15;;;18.13;;
18887;SDS011;9576;47.792;9.628;2022-09-01T04:14:47;29.53;;;17.77;;
18887;SDS011;9576;47.792;9.628;2022-09-01T04:17:49;26.15;;;16.52;;
18887;SDS011;9576;47.792;9.628;2022-09-01T04:21:11;30.65;;;16.88;;
18887;SDS011;9576;47.792;9.628;2022-09-01T04:24:13;26.67;;;14.88;;
18887;SDS011;9576;47.792;9.628;2022-09-01T04:27:15;33.40;;;16.15;;
18887;SDS011;9576;47.792;9.628;2022-09-01T04:30:24;25.05;;;15.13;;
18887;SDS011;9576;47.792;9.628;2022-09-01T04:33:31;27.45;;;16.20;;
18887;SDS011;9576;47.792;9.628;2022-09-01T04:36:36;23.88;;;15.23;;
18887;SDS011;9576;47.792;9.628;2022-09-01T04:39:39;30.95;;;15.35;;
18887;SDS011;9576;47.792;9.628;2022-09-01T04:42:47;34.03;;;17.08;;
18887;SDS011;9576;47.792;9.628;2022-09-01T04:45:51;23.65;;;15.05;;
18887;SDS011;9576;47.792;9.628;2022-09-01T04:48:53;28.13;;;16.15;;
18887;SDS011;9576;47.792;9.628;2022-09-01T04:51:56;29.85;;;14.65;;
18887;SDS011;9576;47.792;9.628;2022-09-01T04:54:58;26.65;;;14.55;;
18887;SDS011;9576;47.792;9.628;2022-09-01T04:58:02;25.63;;;15.40;;
18887;SDS011;9576;47.792;9.628;2022-09-01T05:01:13;31.60;;;14.55;;
18887;SDS011;9576;47.792;9.628;2022-09-01T05:04:17;32.60;;;16.90;;
18887;SDS011;9576;47.792;9.628;2022-09-01T05:07:21;23.35;;;14.40;;
18887;SDS011;9576;47.792;9.628;2022-09-01T05:10:24;29.60;;;15.73;;
18887;SDS011;9576;47.792;9.628;2022-09-01T05:13:28;29.90;;;15.13;;
18887;SDS011;9576;47.792;9.628;2022-09-01T05:16:33;29.67;;;16.92;;
18887;SDS011;9576;47.792;9.628;2022-09-01T05:19:36;26.33;;;15.50;;
18887;SDS011;9576;47.792;9.628;2022-09-01T05:22:40;24.50;;;15.93;;
18887;SDS011;9576;47.792;9.628;2022-09-01T05:25:42;27.67;;;15.40;;
18887;SDS011;9576;47.792;9.628;2022-09-01T05:28:45;29.85;;;17.40;;
18887;SDS011;9576;47.792;9.628;2022-09-01T05:31:50;29.70;;;18.02;;
18887;SDS011;9576;47.792;9.628;2022-09-01T05:34:53;27.35;;;17.52;;
18887;SDS011;9576;47.792;9.628;2022-09-01T05:37:56;31.13;;;18.48;;
18887;SDS011;9576;47.792;9.628;2022-09-01T05:40:59;34.05;;;18.80;;
18887;SDS011;9576;47.792;9.628;2022-09-01T05:44:03;27.08;;;17.58;;
18887;SDS011;9576;47.792;9.628;2022-09-01T05:47:08;32.23;;;17.77;;
18887;SDS011;9576;47.792;9.628;2022-09-01T05:50:11;31.52;;;17.73;;
18887;SDS011;9576;47.792;9.628;2022-09-01T05:53:18;32.72;;;18.15;;
18887;SDS011;9576;47.792;9.628;2022-09-01T05:56:20;28.42;;;17.27;;
18887;SDS011;9576;47.792;9.628;2022-09-01T05:59:23;30.63;;;18.45;;
18887;SDS011;9576;47.792;9.628;2022-09-01T06:02:28;36.58;;;19.77;;
18887;SDS011;9576;47.792;9.628;2022-09-01T06:05:32;30.45;;;17.95;;
18887;SDS011;9576;47.792;9.628;2022-09-01T06:08:36;31.58;;;19.60;;
18887;SDS011;9576;47.792;9.628;2022-09-01T06:11:42;35.80;;;18.85;;
18887;SDS011;9576;47.792;9.628;2022-09-01T06:14:46;38.90;;;18.05;;
18887;SDS011;9576;47.792;9.628;2022-09-01T06:17:50;34.65;;;18.35;;
18887;SDS011;9576;47.792;9.628;2022-09-01T06:20:53;29.48;;;17.65;;
18887;SDS011;9576;47.792;9.628;2022-09-01T06:23:56;30.45;;;18.33;;
18887;SDS011;9576;47.792;9.628;2022-09-01T06:26:59;28.25;;;17.05;;
18887;SDS011;9576;47.792;9.628;2022-09-01T06:30:01;29.92;;;16.70;;
18887;SDS011;9576;47.792;9.628;2022-09-01T06:33:13;29.73;;;17.88;;
18887;SDS011;9576;47.792;9.628;2022-09-01T06:36:16;36.88;;;18.30;;
18887;SDS011;9576;47.792;9.628;2022-09-01T06:39:20;30.38;;;17.85;;
18887;SDS011;9576;47.792;9.628;2022-09-01T06:42:23;28.70;;;18.65;;
18887;SDS011;9576;47.792;9.628;2022-09-01T06:45:25;30.25;;;17.55;;
18887;SDS011;9576;47.792;9.628;2022-09-01T06:48:28;31.58;;;17.98;;
18887;SDS011;9576;47.792;9.628;2022-09-01T06:51:31;31.05;;;18.00;;
18887;SDS011;9576;47.792;9.628;2022-09-01T06:54:33;32.20;;;17.73;;
18887;SDS011;9576;47.792;9.628;2022-09-01T06:57:38;29.83;;;17.45;;
18887;SDS011;9576;47.792;9.628;2022-09-01T07:00:41;26.10;;;15.60;;
18887;SDS011;9576;47.792;9.628;2022-09-01T07:03:46;32.00;;;15.07;;
18887;SDS011;9576;47.792;9.628;2022-09-01T07:06:50;24.17;;;13.00;;
18887;SDS011;9576;47.792;9.628;2022-09-01T07:09:52;24.70;;;13.77;;
18887;SDS011;9576;47.792;9.628;2022-09-01T07:12:55;18.90;;;11.93;;
18887;SDS011;9576;47.792;9.628;2022-09-01T07:16:00;19.83;;;11.68;;
18887;SDS011;9576;47.792;9.628;2022-09-01T07:19:07;19.75;;;10.68;;
18887;SDS011;9576;47.792;9.628;2022-09-01T07:22:14;14.60;;;8.98;;
18887;SDS011;9576;47.792;9.628;2022-09-01T07:25:16;14.73;;;9.18;;
18887;SDS011;9576;47.792;9.628;2022-09-01T07:28:20;11.23;;;8.23;;
18887;SDS011;9576;47.792;9.628;2022-09-01T07:31:24;13.63;;;9.23;;
18887;SDS011;9576;47.792;9.628;2022-09-01T07:34:30;11.63;;;7.97;;
18887;SDS011;9576;47.792;9.628;2022-09-01T07:37:32;10.70;;;7.28;;
18887;SDS011;9576;47.792;9.628;2022-09-01T07:43:41;14.82;;;8.63;;
18887;SDS011;9576;47.792;9.628;2022-09-01T07:46:43;12.27;;;8.10;;
18887;SDS011;9576;47.792;9.628;2022-09-01T07:49:52;13.55;;;7.63;;
18887;SDS011;9576;47.792;9.628;2022-09-01T07:52:54;11.43;;;6.85;;
18887;SDS011;9576;47.792;9.628;2022-09-01T07:55:58;15.23;;;7.00;;
18887;SDS011;9576;47.792;9.628;2022-09-01T07:59:01;11.05;;;7.60;;
18887;SDS011;9576;47.792;9.628;2022-09-01T08:02:03;10.30;;;6.82;;
18887;SDS011;9576;47.792;9.628;2022-09-01T08:05:08;10.80;;;6.72;;
18887;SDS011;9576;47.792;9.628;2022-09-01T08:08:13;10.10;;;6.25;;
18887;SDS011;9576;47.792;9.628;2022-09-01T08:11:15;9.25;;;5.78;;
18887;SDS011;9576;47.792;9.628;2022-09-01T08:14:19;10.73;;;6.05;;
18887;SDS011;9576;47.792;9.628;2022-09-01T08:17:22;10.13;;;5.63;;
18887;SDS011;9576;47.792;9.628;2022-09-01T08:20:25;7.47;;;4.95;;
18887;SDS011;9576;47.792;9.628;2022-09-01T08:23:27;8.75;;;5.10;;
18887;SDS011;9576;47.792;9.628;2022-09-01T08:26:30;8.35;;;4.70;;
18887;SDS011;9576;47.792;9.628;2022-09-01T08:29:32;7.97;;;4.30;;
18887;SDS011;9576;47.792;9.628;2022-09-01T08:32:35;6.28;;;4.57;;
18887;SDS011;9576;47.792;9.628;2022-09-01T08:35:44;9.95;;;4.65;;
18887;SDS011;9576;47.792;9.628;2022-09-01T08:38:48;7.70;;;4.60;;
18887;SDS011;9576;47.792;9.628;2022-09-01T08:41:52;9.15;;;5.57;;
18887;SDS011;9576;47.792;9.628;2022-09-01T08:45:06;7.82;;;5.22;;
18887;SDS011;9576;47.792;9.628;2022-09-01T08:48:13;11.75;;;4.70;;
18887;SDS011;9576;47.792;9.628;2022-09-01T08:51:21;8.77;;;4.95;;
18887;SDS011;9576;47.792;9.628;2022-09-01T08:54:31;6.70;;;5.18;;
18887;SDS011;9576;47.792;9.628;2022-09-01T08:57:39;7.18;;;4.40;;
18887;SDS011;9576;47.792;9.628;2022-09-01T09:00:43;5.28;;;4.07;;
18887;SDS011;9576;47.792;9.628;2022-09-01T09:03:55;7.43;;;4.32;;
18887;SDS011;9576;47.792;9.628;2022-09-01T09:07:09;7.15;;;4.93;;
18887;SDS011;9576;47.792;9.628;2022-09-01T09:10:20;5.25;;;3.47;;
18887;SDS011;9576;47.792;9.628;2022-09-01T09:13:30;6.03;;;4.00;;
18887;SDS011;9576;47.792;9.628;2022-09-01T09:16:40;4.50;;;3.58;;
18887;SDS011;9576;47.792;9.628;2022-09-01T09:19:46;8.07;;;4.18;;
18887;SDS011;9576;47.792;9.628;2022-09-01T09:22:49;5.32;;;3.75;;
18887;SDS011;9576;47.792;9.628;2022-09-01T09:25:53;10.60;;;4.53;;
18887;SDS011;9576;47.792;9.628;2022-09-01T09:28:56;5.63;;;3.97;;
18887;SDS011;9576;47.792;9.628;2022-09-01T09:32:01;7.30;;;3.88;;
18887;SDS011;9576;47.792;9.628;2022-09-01T09:35:16;5.93;;;4.22;;
18887;SDS011;9576;47.792;9.628;2022-09-01T09:38:25;7.60;;;4.70;;
18887;SDS011;9576;47.792;9.628;2022-09-01T09:41:30;6.38;;;3.78;;
18887;SDS011;9576;47.792;9.628;2022-09-01T09:44:32;5.32;;;4.30;;
18887;SDS011;9576;47.792;9.628;2022-09-01T09:47:41;5.38;;;4.28;;
18887;SDS011;9576;47.792;9.628;2022-09-01T09:50:45;6.35;;;4.15;;
18887;SDS011;9576;47.792;9.628;2022-09-01T09:53:49;6.20;;;3.53;;
18887;SDS011;9576;47.792;9.628;2022-09-01T10:00:15;3.90;;;3.25;;
18887;SDS011;9576;47.792;9.628;2022-09-01T10:03:20;4.65;;;3.25;;
18887;SDS011;9576;47.792;9.628;2022-09-01T10:06:37;4.50;;;3.35;;
18887;SDS011;9576;47.792;9.628;2022-09-01T10:12:44;4.50;;;2.83;;
18887;SDS011;9576;47.792;9.628;2022-09-01T10:15:47;8.13;;;2.88;;
18887;SDS011;9576;47.792;9.628;2022-09-01T10:18:51;4.15;;;3.17;;
18887;SDS011;9576;47.792;9.628;2022-09-01T10:21:59;7.85;;;2.60;;
18887;SDS011;9576;47.792;9.628;2022-09-01T10:25:04;3.28;;;2.78;;
18887;SDS011;9576;47.792;9.628;2022-09-01T10:28:09;6.72;;;2.80;;
18887;SDS011;9576;47.792;9.628;2022-09-01T10:31:15;4.50;;;2.67;;
18887;SDS011;9576;47.792;9.628;2022-09-01T10:34:17;3.30;;;2.47;;
18887;SDS011;9576;47.792;9.628;2022-09-01T10:37:21;4.63;;;2.75;;
18887;SDS011;9576;47.792;9.628;2022-09-01T10:40:36;15.65;;;3.38;;
18887;SDS011;9576;47.792;9.628;2022-09-01T10:43:41;3.47;;;2.83;;
18887;SDS011;9576;47.792;9.628;2022-09-01T10:46:44;4.97;;;2.40;;
18887;SDS011;9576;47.792;9.628;2022-09-01T10:49:57;3.38;;;2.45;;
18887;SDS011;9576;47.792;9.628;2022-09-01T10:59:23;4.97;;;2.50;;
18887;SDS011;9576;47.792;9.628;2022-09-01T11:02:26;3.22;;;2.38;;
18887;SDS011;9576;47.792;9.628;2022-09-01T11:05:34;3.97;;;2.72;;
18887;SDS011;9576;47.792;9.628;2022-09-01T11:09:00;4.10;;;2.88;;
18887;SDS011;9576;47.792;9.628;2022-09-01T11:12:12;3.70;;;3.00;;
18887;SDS011;9576;47.792;9.628;2022-09-01T11:15:35;4.43;;;2.95;;
18887;SDS011;9576;47.792;9.628;2022-09-01T11:18:39;4.75;;;2.85;;
18887;SDS011;9576;47.792;9.628;2022-09-01T11:21:43;4.35;;;3.05;;
18887;SDS011;9576;47.792;9.628;2022-09-01T11:24:49;3.92;;;2.80;;
18887;SDS011;9576;47.792;9.628;2022-09-01T11:28:10;8.10;;;3.17;;
18887;SDS011;9576;47.792;9.628;2022-09-01T11:31:39;5.53;;;2.90;;
18887;SDS011;9576;47.792;9.628;2022-09-01T11:34:44;10.00;;;2.88;;
18887;SDS011;9576;47.792;9.628;2022-09-01T11:37:50;11.55;;;2.90;;
18887;SDS011;9576;47.792;9.628;2022-09-01T11:40:55;4.13;;;2.30;;
18887;SDS011;9576;47.792;9.628;2022-09-01T11:44:00;2.70;;;2.17;;
18887;SDS011;9576;47.792;9.628;2022-09-01T11:47:10;5.15;;;3.17;;
18887;SDS011;9576;47.792;9.628;2022-09-01T11:50:17;2.92;;;2.55;;
18887;SDS011;9576;47.792;9.628;2022-09-01T11:53:22;4.75;;;3.58;;
18887;SDS011;9576;47.792;9.628;2022-09-01T11:56:25;5.97;;;2.65;;
18887;SDS011;9576;47.792;9.628;2022-09-01T11:59:30;3.35;;;2.67;;
18887;SDS011;9576;47.792;9.628;2022-09-01T12:02:34;3.55;;;2.47;;
18887;SDS011;9576;47.792;9.628;2022-09-01T12:05:42;3.85;;;2.80;;
18887;SDS011;9576;47.792;9.628;2022-09-01T12:08:52;3.65;;;2.75;;
18887;SDS011;9576;47.792;9.628;2022-09-01T12:11:57;2.75;;;2.38;;
18887;SDS011;9576;47.792;9.628;2022-09-01T12:15:03;3.28;;;2.35;;
18887;SDS011;9576;47.792;9.628;2022-09-01T12:18:13;2.97;;;2.25;;
18887;SDS011;9576;47.792;9.628;2022-09-01T12:21:21;2.78;;;2.22;;
18887;SDS011;9576;47.792;9.628;2022-09-01T12:24:24;4.95;;;2.75;;
18887;SDS011;9576;47.792;9.628;2022-09-01T12:27:27;6.18;;;2.67;;
18887;SDS011;9576;47.792;9.628;2022-09-01T12:30:31;3.63;;;2.78;;
18887;SDS011;9576;47.792;9.628;2022-09-01T12:33:38;4.38;;;2.47;;
18887;SDS011;9576;47.792;9.628;2022-09-01T12:36:42;3.45;;;2.67;;
18887;SDS011;9576;47.792;9.628;2022-09-01T12:40:02;3.53;;;2.47;;
18887;SDS011;9576;47.792;9.628;2022-09-01T12:43:04;5.00;;;2.78;;
18887;SDS011;9576;47.792;9.628;2022-09-01T12:46:08;3.83;;;2.38;;
18887;SDS011;9576;47.792;9.628;2022-09-01T12:49:16;4.93;;;2.95;;
18887;SDS011;9576;47.792;9.628;2022-09-01T12:52:20;2.67;;;1.95;;
18887;SDS011;9576;47.792;9.628;2022-09-01T12:55:25;3.85;;;2.88;;
18887;SDS011;9576;47.792;9.628;2022-09-01T12:58:29;5.35;;;2.42;;
18887;SDS011;9576;47.792;9.628;2022-09-01T13:01:33;4.07;;;2.63;;
18887;SDS011;9576;47.792;9.628;2022-09-01T13:04:36;6.13;;;2.28;;
18887;SDS011;9576;47.792;9.628;2022-09-01T13:07:40;4.45;;;2.53;;
18887;SDS011;9576;47.792;9.628;2022-09-01T13:10:43;6.57;;;2.72;;
18887;SDS011;9576;47.792;9.628;2022-09-01T13:13:47;3.72;;;2.50;;
18887;SDS011;9576;47.792;9.628;2022-09-01T13:16:51;4.78;;;2.95;;
18887;SDS011;9576;47.792;9.628;2022-09-01T13:19:53;2.65;;;2.45;;
18887;SDS011;9576;47.792;9.628;2022-09-01T13:22:55;4.07;;;2.63;;
18887;SDS011;9576;47.792;9.628;2022-09-01T13:25:58;4.65;;;2.90;;
18887;SDS011;9576;47.792;9.628;2022-09-01T13:29:00;3.28;;;2.10;;
18887;SDS011;9576;47.792;9.628;2022-09-01T13:32:04;2.35;;;2.15;;
18887;SDS011;9576;47.792;9.628;2022-09-01T13:35:06;18.77;;;2.70;;
18887;SDS011;9576;47.792;9.628;2022-09-01T13:38:09;4.63;;;2.20;;
18887;SDS011;9576;47.792;9.628;2022-09-01T13:41:15;2.65;;;2.38;;
18887;SDS011;9576;47.792;9.628;2022-09-01T13:44:17;5.63;;;2.50;;
18887;SDS011;9576;47.792;9.628;2022-09-01T13:47:21;2.45;;;2.25;;
18887;SDS011;9576;47.792;9.628;2022-09-01T13:50:24;3.72;;;2.50;;
18887;SDS011;9576;47.792;9.628;2022-09-01T13:53:27;6.15;;;2.40;;
18887;SDS011;9576;47.792;9.628;2022-09-01T13:56:29;4.28;;;2.15;;
18887;SDS011;9576;47.792;9.628;2022-09-01T13:59:31;2.90;;;2.22;;
18887;SDS011;9576;47.792;9.628;2022-09-01T14:02:35;3.55;;;2.55;;
18887;SDS011;9576;47.792;9.628;2022-09-01T14:05:38;4.65;;;2.83;;
18887;SDS011;9576;47.792;9.628;2022-09-01T14:08:42;3.13;;;2.40;;
18887;SDS011;9576;47.792;9.628;2022-09-01T14:11:44;7.55;;;2.22;;
18887;SDS011;9576;47.792;9.628;2022-09-01T14:14:47;4.28;;;2.60;;
18887;SDS011;9576;47.792;9.628;2022-09-01T14:17:51;2.70;;;1.95;;
18887;SDS011;9576;47.792;9.628;2022-09-01T14:20:55;4.00;;;2.75;;
18887;SDS011;9576;47.792;9.628;2022-09-01T14:24:00;6.57;;;2.38;;
18887;SDS011;9576;47.792;9.628;2022-09-01T14:27:02;3.30;;;2.78;;
18887;SDS011;9576;47.792;9.628;2022-09-01T14:30:06;2.47;;;2.20;;
18887;SDS011;9576;47.792;9.628;2022-09-01T14:33:12;5.47;;;2.60;;
18887;SDS011;9576;47.792;9.628;2022-09-01T14:36:16;4.45;;;2.33;;
18887;SDS011;9576;47.792;9.628;2022-09-01T14:39:19;3.00;;;2.17;;
18887;SDS011;9576;47.792;9.628;2022-09-01T14:42:22;3.92;;;2.28;;
18887;SDS011;9576;47.792;9.628;2022-09-01T14:45:27;3.78;;;2.60;;
18887;SDS011;9576;47.792;9.628;2022-09-01T14:48:31;9.85;;;3.75;;
18887;SDS011;9576;47.792;9.628;2022-09-01T14:51:34;7.43;;;4.30;;
18887;SDS011;9576;47.792;9.628;2022-09-01T14:54:38;3.70;;;2.33;;
18887;SDS011;9576;47.792;9.628;2022-09-01T14:57:41;8.98;;;2.75;;
18887;SDS011;9576;47.792;9.628;2022-09-01T15:00:43;9.55;;;2.38;;
18887;SDS011;9576;47.792;9.628;2022-09-01T15:03:48;2.28;;;2.05;;
18887;SDS011;9576;47.792;9.628;2022-09-01T15:06:50;3.47;;;2.50;;
18887;SDS011;9576;47.792;9.628;2022-09-01T15:09:52;4.28;;;2.20;;
18887;SDS011;9576;47.792;9.628;2022-09-01T15:12:55;14.07;;;3.10;;
18887;SDS011;9576;47.792;9.628;2022-09-01T15:15:58;4.32;;;3.15;;
18887;SDS011;9576;47.792;9.628;2022-09-01T15:19:02;3.55;;;2.80;;
18887;SDS011;9576;47.792;9.628;2022-09-01T15:22:04;3.60;;;2.33;;
18887;SDS011;9576;47.792;9.628;2022-09-01T15:25:07;4.00;;;2.25;;
18887;SDS011;9576;47.792;9.628;2022-09-01T15:28:10;3.22;;;2.00;;
18887;SDS011;9576;47.792;9.628;2022-09-01T15:31:13;2.95;;;2.38;;
18887;SDS011;9576;47.792;9.628;2022-09-01T15:34:18;4.95;;;2.20;;
18887;SDS011;9576;47.792;9.628;2022-09-01T15:37:20;13.63;;;2.37;;
18887;SDS011;9576;47.792;9.628;2022-09-01T15:40:22;4.10;;;2.13;;
18887;SDS011;9576;47.792;9.628;2022-09-01T15:43:26;4.22;;;2.33;;
18887;SDS011;9576;47.792;9.628;2022-09-01T15:46:28;2.65;;;2.00;;
18887;SDS011;9576;47.792;9.628;2022-09-01T15:49:34;4.68;;;2.33;;
18887;SDS011;9576;47.792;9.628;2022-09-01T15:52:38;2.95;;;2.53;;
18887;SDS011;9576;47.792;9.628;2022-09-01T15:55:49;2.95;;;2.10;;
18887;SDS011;9576;47.792;9.628;2022-09-01T15:58:52;6.43;;;2.20;;
18887;SDS011;9576;47.792;9.628;2022-09-01T16:01:54;5.72;;;2.72;;
18887;SDS011;9576;47.792;9.628;2022-09-01T16:04:58;3.58;;;2.58;;
18887;SDS011;9576;47.792;9.628;2022-09-01T16:08:00;4.60;;;2.72;;
18887;SDS011;9576;47.792;9.628;2022-09-01T16:11:05;8.30;;;3.30;;
18887;SDS011;9576;47.792;9.628;2022-09-01T16:14:09;6.75;;;4.32;;
18887;SDS011;9576;47.792;9.628;2022-09-01T16:17:12;5.35;;;2.83;;
18887;SDS011;9576;47.792;9.628;2022-09-01T16:20:23;6.15;;;3.17;;
18887;SDS011;9576;47.792;9.628;2022-09-01T16:23:29;4.70;;;2.65;;
18887;SDS011;9576;47.792;9.628;2022-09-01T16:26:39;4.90;;;2.83;;
18887;SDS011;9576;47.792;9.628;2022-09-01T16:29:46;14.77;;;3.03;;
18887;SDS011;9576;47.792;9.628;2022-09-01T16:32:50;4.22;;;2.50;;
18887;SDS011;9576;47.792;9.628;2022-09-01T16:36:05;5.47;;;2.80;;
18887;SDS011;9576;47.792;9.628;2022-09-01T16:39:19;3.40;;;2.53;;
18887;SDS011;9576;47.792;9.628;2022-09-01T16:42:29;4.45;;;2.92;;
18887;SDS011;9576;47.792;9.628;2022-09-01T16:45:39;2.85;;;2.47;;
18887;SDS011;9576;47.792;9.628;2022-09-01T16:48:47;3.05;;;2.70;;
18887;SDS011;9576;47.792;9.628;2022-09-01T16:51:57;5.93;;;2.47;;
18887;SDS011;9576;47.792;9.628;2022-09-01T16:55:09;3.58;;;2.47;;
18887;SDS011;9576;47.792;9.628;2022-09-01T16:58:19;2.65;;;2.03;;
18887;SDS011;9576;47.792;9.628;2022-09-01T17:01:30;4.07;;;2.33;;
18887;SDS011;9576;47.792;9.628;2022-09-01T17:04:43;4.00;;;2.30;;
18887;SDS011;9576;47.792;9.628;2022-09-01T17:07:53;6.57;;;2.60;;
18887;SDS011;9576;47.792;9.628;2022-09-01T17:11:00;5.30;;;2.15;;
18887;SDS011;9576;47.792;9.628;2022-09-01T17:14:08;3.00;;;2.20;;
18887;SDS011;9576;47.792;9.628;2022-09-01T17:17:27;2.40;;;2.10;;
18887;SDS011;9576;47.792;9.628;2022-09-01T17:20:34;3.92;;;2.13;;
18887;SDS011;9576;47.792;9.628;2022-09-01T17:23:45;3.33;;;2.30;;
18887;SDS011;9576;47.792;9.628;2022-09-01T17:26:54;4.53;;;2.72;;
18887;SDS011;9576;47.792;9.628;2022-09-01T17:30:04;3.45;;;2.33;;
18887;SDS011;9576;47.792;9.628;2022-09-01T17:33:10;3.83;;;2.38;;
18887;SDS011;9576;47.792;9.628;2022-09-01T17:39:34;3.17;;;2.58;;
18887;SDS011;9576;47.792;9.628;2022-09-01T17:42:44;8.15;;;2.67;;
18887;SDS011;9576;47.792;9.628;2022-09-01T17:45:55;7.63;;;4.82;;
18887;SDS011;9576;47.792;9.628;2022-09-01T17:49:06;5.43;;;2.92;;
18887;SDS011;9576;47.792;9.628;2022-09-01T17:52:19;3.58;;;2.50;;
18887;SDS011;9576;47.792;9.628;2022-09-01T17:55:35;5.07;;;3.42;;
18887;SDS011;9576;47.792;9.628;2022-09-01T17:58:47;3.83;;;2.80;;
18887;SDS011;9576;47.792;9.628;2022-09-01T18:02:00;6.38;;;3.22;;
18887;SDS011;9576;47.792;9.628;2022-09-01T18:05:14;5.57;;;3.20;;
18887;SDS011;9576;47.792;9.628;2022-09-01T18:11:30;5.55;;;3.15;;
18887;SDS011;9576;47.792;9.628;2022-09-01T18:14:40;4.68;;;3.08;;
18887;SDS011;9576;47.792;9.628;2022-09-01T18:17:53;3.42;;;3.05;;
18887;SDS011;9576;47.792;9.628;2022-09-01T18:21:02;6.00;;;3.65;;
18887;SDS011;9576;47.792;9.628;2022-09-01T18:24:10;5.53;;;3.13;;
18887;SDS011;9576;47.792;9.628;2022-09-01T18:27:17;4.28;;;3.35;;
18887;SDS011;9576;47.792;9.628;2022-09-01T18:30:19;5.45;;;3.65;;
18887;SDS011;9576;47.792;9.628;2022-09-01T18:33:26;8.07;;;3.05;;
18887;SDS011;9576;47.792;9.628;2022-09-01T18:36:32;10.30;;;3.45;;
18887;SDS011;9576;47.792;9.628;2022-09-01T18:39:44;6.28;;;3.15;;
18887;SDS011;9576;47.792;9.628;2022-09-01T18:42:56;4.43;;;3.40;;
18887;SDS011;9576;47.792;9.628;2022-09-01T18:46:07;7.72;;;2.80;;
18887;SDS011;9576;47.792;9.628;2022-09-01T18:49:18;4.90;;;3.53;;
18887;SDS011;9576;47.792;9.628;2022-09-01T18:56:09;4.47;;;3.60;;
18887;SDS011;9576;47.792;9.628;2022-09-01T19:03:00;4.80;;;3.60;;
18887;SDS011;9576;47.792;9.628;2022-09-01T19:06:27;9.23;;;3.95;;
18887;SDS011;9576;47.792;9.628;2022-09-01T19:09:33;3.97;;;3.55;;
18887;SDS011;9576;47.792;9.628;2022-09-01T19:12:39;5.63;;;4.18;;